Siasconset, MA (02564)

12:19 PM EDT on October 01, 2016 (GMT -0400)
NOS_NWLON | | Change Station

Elev 0 ft 41.28 °N, 70.10 °W | Updated 31 minutes ago

Overcast
Overcast
62 °F
Feels Like 62 °F
N
15
Wind Variable Wind from East
Gusts 0.0 mph

Today
High -- | Low -- °F
--% Chance of Precip.
Yesterday
High -- | Low -- °F
Precip. -- in
Pressure 30.15 in
Visibility 2.0 miles
Clouds Overcast 500 ft
Dew Point Not available.
Humidity Not available.
Rainfall in
Snow Depth Not available.
6:37 AM 6:20 PM
New Moon, 0% visible
METAR KACK 011553Z 07014KT 2SM R24/6000VP6000FT -RA BR OVC005 17/16 A3015 RMK AO2 SLP209 P0002 T01720161 $
Pressure 30.15 in
Visibility 2.0 miles
Clouds Overcast 500 ft
Dew Point Not available.
Humidity Not available.
Rainfall in
Snow Depth Not available.
6:37 AM 6:20 PM
New Moon, 0% visible
METAR KACK 011553Z 07014KT 2SM R24/6000VP6000FT -RA BR OVC005 17/16 A3015 RMK AO2 SLP209 P0002 T01720161 $

10-Day Weather Forecast

Almanac

Astronomy

Oct. 01, 2016 Rise Set
Actual Time
Civil Twilight
Nautical Twilight
Astronomical Twilight
Moon
Length of Visible Light
Length of Day
Tomorrow will be .
, % of the Moon is Illuminated

Today's Extremes

State Highs State Lows

Community

WunderPhotos

Upload Photos

1,942,957 photos uploaded!

WunderBlog® & News

Nearby

Air Quality

  Air Quality AQ Index Pollutant
Not available.

Snow Depth

Station Depth Elevation

Earthquake Activity

City Distance Mag. Time & Date
Minimum magnitude displayed is 2.5.

Coastal Water Temperatures

Place Temperature

Stations

Nearby Weather Stations

Station Location Temp. Windchill Dew Point Humidity Wind Precip. Elev Updated Type
                   

Watches & Warnings

There are currently no watches in effect.